createdAt,value
2018-09-18T00:01:50.475Z,8.75
2018-09-18T00:04:17.702Z,10.53
2018-09-18T00:06:44.920Z,7.70
2018-09-18T00:09:12.143Z,8.03
2018-09-18T00:11:39.396Z,8.33
2018-09-18T00:14:06.728Z,8.83
2018-09-18T00:16:34.160Z,9.53
2018-09-18T00:19:01.483Z,10.33
2018-09-18T00:21:28.719Z,8.20
2018-09-18T00:23:55.937Z,9.93
2018-09-18T00:26:23.172Z,8.87
2018-09-18T00:28:50.412Z,8.55
2018-09-18T00:31:17.626Z,8.88
2018-09-18T00:33:44.927Z,8.10
2018-09-18T00:36:12.134Z,8.60
2018-09-18T00:38:39.377Z,8.80
2018-09-18T00:41:06.599Z,8.63
2018-09-18T00:43:33.847Z,8.80
2018-09-18T00:46:01.114Z,9.05
2018-09-18T00:48:28.371Z,10.25
2018-09-18T00:50:55.640Z,9.30
2018-09-18T00:53:22.866Z,9.53
2018-09-18T00:55:50.123Z,9.03
2018-09-18T00:58:17.351Z,8.68
2018-09-18T01:00:44.611Z,9.45
2018-09-18T01:03:11.904Z,8.73
2018-09-18T01:05:39.102Z,10.90
2018-09-18T01:08:06.376Z,9.85
2018-09-18T01:10:33.703Z,9.93
2018-09-18T01:13:00.939Z,8.75
2018-09-18T01:15:28.213Z,9.73
2018-09-18T01:17:55.441Z,9.00
2018-09-18T01:20:22.658Z,9.55
2018-09-18T01:22:49.891Z,11.90
2018-09-18T01:25:17.126Z,9.75
2018-09-18T01:27:44.397Z,9.45
2018-09-18T01:30:11.713Z,11.25
2018-09-18T01:32:38.964Z,11.08
2018-09-18T01:35:06.234Z,10.80
2018-09-18T01:37:33.463Z,10.90
2018-09-18T01:40:00.712Z,10.75
2018-09-18T01:42:27.996Z,9.65
2018-09-18T01:44:55.286Z,10.35
2018-09-18T01:47:22.474Z,10.32
2018-09-18T01:49:49.730Z,11.08
2018-09-18T01:52:16.934Z,11.23
2018-09-18T01:54:44.120Z,9.70
2018-09-18T01:57:11.342Z,9.53
2018-09-18T01:59:38.563Z,11.70
2018-09-18T02:02:05.790Z,10.10
2018-09-18T02:04:32.994Z,9.88
2018-09-18T02:07:00.189Z,11.28
2018-09-18T02:09:27.394Z,10.20
2018-09-18T02:11:54.602Z,10.80
2018-09-18T02:14:21.806Z,10.00
2018-09-18T02:16:49.060Z,11.35
2018-09-18T02:19:16.314Z,9.58
2018-09-18T02:21:43.559Z,9.45
2018-09-18T02:24:10.758Z,9.97
2018-09-18T02:26:37.983Z,10.67
2018-09-18T02:29:05.246Z,10.53
2018-09-18T02:31:32.482Z,9.80
2018-09-18T02:33:59.703Z,9.43
2018-09-18T02:36:27.032Z,10.20
2018-09-18T02:38:54.243Z,9.93
2018-09-18T02:41:21.539Z,12.68
2018-09-18T02:43:48.790Z,10.70
2018-09-18T02:46:16.044Z,10.88
2018-09-18T02:48:43.255Z,10.70
2018-09-18T02:51:10.632Z,12.07
2018-09-18T02:53:37.858Z,9.53
2018-09-18T02:56:05.088Z,9.87
2018-09-18T02:58:32.303Z,9.70
2018-09-18T03:00:59.530Z,9.40
2018-09-18T03:03:26.764Z,11.63
2018-09-18T03:05:54.002Z,12.23
2018-09-18T03:08:21.254Z,10.67
2018-09-18T03:10:48.470Z,11.12
2018-09-18T03:13:15.695Z,11.43
2018-09-18T03:15:42.931Z,12.18
2018-09-18T03:18:10.199Z,12.10
2018-09-18T03:20:37.426Z,11.73
2018-09-18T03:23:04.663Z,12.30
2018-09-18T03:25:31.898Z,13.65
2018-09-18T03:27:59.338Z,12.35
2018-09-18T03:30:26.581Z,12.20
2018-09-18T03:32:53.851Z,12.85
2018-09-18T03:35:21.063Z,13.13
2018-09-18T03:37:48.275Z,13.03
2018-09-18T03:40:15.487Z,12.93
2018-09-18T03:42:42.687Z,14.80
2018-09-18T03:45:09.892Z,13.53
2018-09-18T03:47:37.123Z,13.17
2018-09-18T03:50:04.350Z,14.40
2018-09-18T03:52:31.563Z,13.78
2018-09-18T03:54:58.776Z,16.30
2018-09-18T03:57:25.972Z,13.28
2018-09-18T03:59:53.187Z,13.37
2018-09-18T04:02:20.387Z,14.15
2018-09-18T04:04:47.595Z,13.60
2018-09-18T04:07:14.798Z,14.20
2018-09-18T04:09:42.066Z,13.47
2018-09-18T04:12:09.313Z,13.40
2018-09-18T04:14:36.529Z,11.63
2018-09-18T04:17:03.746Z,11.50
2018-09-18T04:19:30.985Z,13.30
2018-09-18T04:21:58.207Z,12.93
2018-09-18T04:24:25.454Z,14.85
2018-09-18T04:26:52.707Z,13.27
2018-09-18T04:29:19.995Z,13.83
2018-09-18T04:31:47.202Z,13.50
2018-09-18T04:34:14.435Z,13.53
2018-09-18T04:36:41.680Z,13.60
2018-09-18T04:39:10.807Z,14.60
2018-09-18T04:41:38.014Z,14.10
2018-09-18T04:44:05.402Z,14.67
2018-09-18T04:46:32.634Z,17.45
2018-09-18T04:48:59.859Z,17.57
2018-09-18T04:51:27.070Z,15.07
2018-09-18T04:53:54.312Z,14.17
2018-09-18T04:56:21.519Z,14.07
2018-09-18T04:58:48.739Z,14.83
2018-09-18T05:01:15.967Z,18.23
2018-09-18T05:03:43.180Z,15.60
2018-09-18T05:06:10.407Z,15.87
2018-09-18T05:08:37.603Z,17.53
2018-09-18T05:11:04.876Z,17.63
2018-09-18T05:13:32.089Z,16.10
2018-09-18T05:15:59.325Z,20.23
2018-09-18T05:18:26.583Z,18.60
2018-09-18T05:20:53.835Z,16.57
2018-09-18T05:23:21.168Z,15.83
2018-09-18T05:25:48.354Z,19.20
2018-09-18T05:28:15.554Z,16.80
2018-09-18T05:30:42.870Z,16.12
2018-09-18T05:33:10.156Z,16.87
2018-09-18T05:35:37.371Z,17.45
2018-09-18T05:38:04.742Z,17.87
2018-09-18T05:40:31.999Z,18.17
2018-09-18T05:42:59.233Z,15.75
2018-09-18T05:45:26.446Z,14.40
2018-09-18T05:47:53.675Z,16.95
2018-09-18T05:50:20.943Z,15.38
2018-09-18T05:52:48.202Z,16.95
2018-09-18T05:55:15.421Z,18.95
2018-09-18T05:57:42.676Z,15.03
2018-09-18T06:00:09.931Z,15.65
2018-09-18T06:02:37.207Z,16.60
2018-09-18T06:05:04.452Z,19.32
2018-09-18T06:07:31.678Z,15.88
2018-09-18T06:09:58.867Z,16.48
2018-09-18T06:12:26.098Z,16.60
2018-09-18T06:14:53.350Z,16.05
2018-09-18T06:17:20.565Z,21.82
2018-09-18T06:19:47.806Z,22.13
2018-09-18T06:22:15.046Z,17.82
2018-09-18T06:24:42.243Z,18.98
2018-09-18T06:27:09.459Z,19.45
2018-09-18T06:29:36.779Z,20.62
2018-09-18T06:32:04.091Z,18.50
2018-09-18T06:34:31.307Z,21.02
2018-09-18T06:36:58.553Z,23.70
2018-09-18T06:39:25.742Z,20.17
2018-09-18T06:41:52.967Z,17.92
2018-09-18T06:44:20.182Z,18.87
2018-09-18T06:46:47.911Z,18.07
2018-09-18T06:49:15.161Z,20.72
2018-09-18T06:51:42.416Z,20.00
2018-09-18T06:54:09.659Z,20.17
2018-09-18T06:56:36.910Z,24.10
2018-09-18T06:59:04.258Z,19.45
2018-09-18T07:01:31.540Z,18.23
2018-09-18T07:03:58.782Z,19.82
2018-09-18T07:06:26.022Z,21.87
2018-09-18T07:08:53.283Z,20.23
2018-09-18T07:11:20.532Z,19.62
2018-09-18T07:13:47.780Z,17.15
2018-09-18T07:16:15.007Z,16.55
2018-09-18T07:18:42.243Z,19.15
2018-09-18T07:21:09.471Z,16.48
2018-09-18T07:23:36.785Z,18.67
2018-09-18T07:26:04.012Z,16.70
2018-09-18T07:28:31.269Z,17.90
2018-09-18T07:30:58.507Z,18.95
2018-09-18T07:33:25.735Z,15.85
2018-09-18T07:35:52.966Z,16.25
2018-09-18T07:38:20.207Z,13.62
2018-09-18T07:40:47.455Z,18.73
2018-09-18T07:43:14.685Z,17.10
2018-09-18T07:45:41.895Z,15.05
2018-09-18T07:48:09.117Z,15.48
2018-09-18T07:50:36.373Z,17.75
2018-09-18T07:53:03.598Z,13.78
2018-09-18T07:55:30.863Z,16.15
2018-09-18T07:57:58.134Z,13.62
2018-09-18T08:00:25.432Z,17.42
2018-09-18T08:02:52.622Z,13.62
2018-09-18T08:05:19.916Z,17.65
2018-09-18T08:07:47.164Z,18.48
2018-09-18T08:10:14.442Z,17.77
2018-09-18T08:12:41.638Z,13.48
2018-09-18T08:15:08.847Z,16.42
2018-09-18T08:17:36.060Z,14.03
2018-09-18T08:20:03.428Z,14.05
2018-09-18T08:22:30.838Z,13.48
2018-09-18T08:24:58.068Z,12.50
2018-09-18T08:27:25.301Z,12.23
2018-09-18T08:29:52.539Z,12.85
2018-09-18T08:32:19.754Z,12.03
2018-09-18T08:34:46.963Z,12.00
2018-09-18T08:37:14.167Z,11.53
2018-09-18T08:39:41.475Z,10.63
2018-09-18T08:42:08.635Z,10.90
2018-09-18T08:44:35.897Z,11.03
2018-09-18T08:47:03.115Z,10.28
2018-09-18T08:49:30.304Z,10.10
2018-09-18T08:51:58.400Z,10.00
2018-09-18T08:54:25.590Z,9.45
2018-09-18T08:56:52.930Z,8.90
2018-09-18T08:59:20.218Z,8.88
2018-09-18T09:01:47.433Z,9.70
2018-09-18T09:04:15.507Z,9.83
2018-09-18T09:06:42.880Z,8.58
2018-09-18T09:09:12.902Z,10.85
2018-09-18T09:11:40.346Z,10.48
2018-09-18T09:14:07.733Z,7.67
2018-09-18T09:16:35.196Z,8.00
2018-09-18T09:19:02.806Z,7.65
2018-09-18T09:21:31.894Z,7.08
2018-09-18T09:23:59.266Z,7.37
2018-09-18T09:26:28.587Z,7.45
2018-09-18T09:28:55.833Z,6.83
2018-09-18T09:31:23.875Z,6.53
2018-09-18T09:33:53.388Z,7.65
2018-09-18T09:36:20.662Z,8.98
2018-09-18T09:38:47.986Z,6.10
2018-09-18T09:41:15.180Z,6.60
2018-09-18T09:43:42.417Z,6.47
2018-09-18T09:46:09.661Z,5.70
2018-09-18T09:48:36.859Z,5.67
2018-09-18T09:51:04.804Z,5.85
2018-09-18T09:53:33.773Z,6.37
2018-09-18T09:56:04.777Z,5.00
2018-09-18T09:58:32.030Z,5.30
2018-09-18T10:01:04.912Z,4.80
2018-09-18T10:03:32.212Z,5.90
2018-09-18T10:05:59.476Z,6.35
2018-09-18T10:08:26.735Z,4.53
2018-09-18T10:10:54.060Z,5.00
2018-09-18T10:13:21.273Z,5.08
2018-09-18T10:15:48.519Z,4.58
2018-09-18T10:18:15.777Z,4.37
2018-09-18T10:20:43.019Z,4.10
2018-09-18T10:23:10.278Z,3.65
2018-09-18T10:25:37.557Z,4.03
2018-09-18T10:28:05.223Z,4.35
2018-09-18T10:30:32.493Z,4.12
2018-09-18T10:32:59.703Z,3.83
2018-09-18T10:35:26.964Z,3.98
2018-09-18T10:37:54.239Z,3.65
2018-09-18T10:40:21.534Z,3.55
2018-09-18T10:42:50.942Z,3.20
2018-09-18T10:45:18.146Z,3.83
2018-09-18T10:47:46.239Z,3.10
2018-09-18T10:50:13.492Z,3.00
2018-09-18T10:52:40.990Z,3.22
2018-09-18T10:55:08.265Z,2.83
2018-09-18T10:57:35.474Z,2.70
2018-09-18T11:00:02.767Z,3.67
2018-09-18T11:02:30.029Z,3.00
2018-09-18T11:04:57.715Z,3.25
2018-09-18T11:07:25.960Z,2.98
2018-09-18T11:09:53.683Z,4.80
2018-09-18T11:12:22.370Z,3.00
2018-09-18T11:14:53.719Z,4.58
2018-09-18T11:17:21.210Z,4.12
2018-09-18T11:19:48.839Z,3.17
2018-09-18T11:22:17.945Z,3.00
2018-09-18T11:24:45.189Z,3.30
2018-09-18T11:27:12.403Z,3.27
2018-09-18T11:29:39.626Z,3.37
2018-09-18T11:32:06.915Z,3.12
2018-09-18T11:34:35.372Z,2.98
2018-09-18T11:37:04.778Z,3.17
2018-09-18T11:39:32.241Z,2.80
2018-09-18T11:41:59.502Z,3.05
2018-09-18T11:44:27.686Z,2.75
2018-09-18T11:46:55.786Z,3.58
2018-09-18T11:49:24.141Z,2.50
2018-09-18T11:51:52.270Z,2.98
2018-09-18T11:54:19.580Z,2.58
2018-09-18T11:56:47.369Z,2.40
2018-09-18T11:59:14.606Z,2.65
2018-09-18T12:01:42.109Z,2.33
2018-09-18T12:04:09.355Z,2.37
2018-09-18T12:06:37.479Z,2.45
2018-09-18T12:09:06.146Z,2.83
2018-09-18T12:11:34.528Z,2.42
2018-09-18T12:14:01.739Z,6.00
2018-09-18T12:16:28.992Z,2.45
2018-09-18T12:18:58.338Z,3.40
2018-09-18T12:21:25.547Z,3.35
2018-09-18T12:23:52.898Z,2.20
2018-09-18T12:26:20.192Z,2.50
2018-09-18T12:28:47.516Z,2.77
2018-09-18T12:31:14.846Z,2.80
2018-09-18T12:33:42.112Z,3.67
2018-09-18T12:36:09.365Z,3.00
2018-09-18T12:38:36.669Z,2.95
2018-09-18T12:41:03.878Z,2.95
2018-09-18T12:43:31.106Z,3.10
2018-09-18T12:45:58.368Z,4.17
2018-09-18T12:48:25.599Z,3.47
2018-09-18T12:50:52.912Z,3.00
2018-09-18T12:53:20.069Z,2.75
2018-09-18T12:55:47.278Z,3.02
2018-09-18T12:58:15.568Z,5.45
2018-09-18T13:00:44.354Z,2.30
2018-09-18T13:03:11.601Z,2.27
2018-09-18T13:05:38.817Z,2.20
2018-09-18T13:08:06.126Z,2.60
2018-09-18T13:10:33.343Z,2.58
2018-09-18T13:13:00.587Z,2.50
2018-09-18T13:15:27.960Z,2.35
2018-09-18T13:17:55.166Z,2.83
2018-09-18T13:20:22.378Z,2.20
2018-09-18T13:22:49.611Z,2.50
2018-09-18T13:25:16.848Z,4.30
2018-09-18T13:27:44.108Z,2.50
2018-09-18T13:30:11.338Z,3.08
2018-09-18T13:32:38.617Z,2.55
2018-09-18T13:35:05.814Z,4.03
2018-09-18T13:37:33.058Z,4.62
2018-09-18T13:40:00.361Z,2.85
2018-09-18T13:42:28.028Z,3.62
2018-09-18T13:44:55.236Z,2.77
2018-09-18T13:47:22.887Z,2.58
2018-09-18T13:49:50.126Z,4.95
2018-09-18T13:52:17.351Z,2.90
2018-09-18T13:54:44.583Z,2.60
2018-09-18T13:57:11.876Z,3.77
2018-09-18T13:59:39.148Z,2.95
2018-09-18T14:02:06.566Z,2.70
2018-09-18T14:04:33.892Z,2.60
2018-09-18T14:07:01.125Z,3.25
2018-09-18T14:09:28.460Z,3.40
2018-09-18T14:11:55.587Z,2.80
2018-09-18T14:14:22.899Z,3.02
2018-09-18T14:16:50.185Z,3.15
2018-09-18T14:19:17.397Z,4.35
2018-09-18T14:21:44.640Z,3.35
2018-09-18T14:24:11.885Z,3.35
2018-09-18T14:26:39.280Z,4.75
2018-09-18T14:29:06.346Z,5.15
2018-09-18T14:31:33.566Z,3.77
2018-09-18T14:34:00.833Z,11.22
2018-09-18T14:36:28.135Z,4.15
2018-09-18T14:38:55.366Z,5.53
2018-09-18T14:41:22.760Z,3.85
2018-09-18T14:43:49.991Z,3.45
2018-09-18T14:46:17.198Z,3.87
2018-09-18T14:48:44.426Z,4.72
2018-09-18T14:51:11.814Z,3.30
2018-09-18T14:53:39.007Z,6.65
2018-09-18T14:56:06.251Z,5.17
2018-09-18T14:58:33.478Z,4.15
2018-09-18T15:01:00.719Z,3.27
2018-09-18T15:03:27.995Z,4.65
2018-09-18T15:05:55.216Z,3.65
2018-09-18T15:08:22.475Z,3.87
2018-09-18T15:10:49.724Z,3.62
2018-09-18T15:13:16.955Z,3.05
2018-09-18T15:15:44.270Z,3.12
2018-09-18T15:18:11.538Z,3.42
2018-09-18T15:20:38.760Z,3.58
2018-09-18T15:23:05.971Z,3.45
2018-09-18T15:25:34.763Z,3.70
2018-09-18T15:28:02.047Z,4.00
2018-09-18T15:30:29.211Z,3.83
2018-09-18T15:32:56.613Z,4.90
2018-09-18T15:35:24.024Z,3.80
2018-09-18T15:37:51.454Z,3.75
2018-09-18T15:40:20.875Z,4.00
2018-09-18T15:42:48.128Z,4.87
2018-09-18T15:45:15.330Z,5.03
2018-09-18T15:47:42.565Z,3.62
2018-09-18T15:50:09.786Z,5.17
2018-09-18T15:52:39.127Z,5.85
2018-09-18T15:55:06.390Z,4.87
2018-09-18T15:57:33.916Z,6.42
2018-09-18T16:00:01.197Z,5.53
2018-09-18T16:02:28.418Z,7.05
2018-09-18T16:04:55.625Z,9.15
2018-09-18T16:07:22.835Z,8.28
2018-09-18T16:09:50.128Z,7.60
2018-09-18T16:12:17.331Z,11.28
2018-09-18T16:14:44.626Z,8.38
2018-09-18T16:17:11.825Z,5.78
2018-09-18T16:19:39.080Z,5.95
2018-09-18T16:22:06.293Z,5.15
2018-09-18T16:24:33.608Z,8.13
2018-09-18T16:27:00.862Z,6.70
2018-09-18T16:29:28.129Z,6.17
2018-09-18T16:31:55.376Z,5.62
2018-09-18T16:34:22.754Z,6.58
2018-09-18T16:37:12.716Z,6.90
2018-09-18T16:39:39.958Z,8.03
2018-09-18T16:42:16.800Z,6.75
2018-09-18T16:44:45.095Z,6.17
2018-09-18T16:47:12.443Z,6.05
2018-09-18T16:49:39.928Z,8.13
2018-09-18T16:55:28.842Z,9.13
2018-09-18T16:57:56.100Z,6.80
2018-09-18T17:00:23.380Z,8.05
2018-09-18T17:02:50.581Z,6.87
2018-09-18T17:05:17.817Z,9.30
2018-09-18T17:07:47.900Z,9.80
2018-09-18T17:10:15.311Z,11.12
2018-09-18T17:15:35.454Z,7.95
2018-09-18T17:18:02.708Z,10.75
2018-09-18T17:20:30.029Z,7.47
2018-09-18T17:22:57.252Z,6.65
2018-09-18T17:25:24.589Z,8.63
2018-09-18T17:27:51.808Z,7.30
2018-09-18T17:30:19.088Z,6.87
2018-09-18T17:32:46.349Z,7.22
2018-09-18T17:35:13.570Z,8.05
2018-09-18T17:37:40.855Z,7.03
2018-09-18T17:40:08.111Z,10.90
2018-09-18T17:42:35.484Z,13.70
2018-09-18T17:45:04.528Z,19.35
2018-09-18T17:47:31.815Z,12.78
2018-09-18T17:49:59.036Z,10.93
2018-09-18T17:52:27.420Z,9.88
2018-09-18T17:54:54.680Z,9.75
2018-09-18T17:57:21.957Z,17.98
2018-09-18T17:59:49.709Z,15.00
2018-09-18T18:02:16.986Z,7.03
2018-09-18T18:04:44.245Z,23.00
2018-09-18T18:07:11.727Z,9.00
2018-09-18T18:09:38.995Z,8.23
2018-09-18T18:12:06.675Z,8.90
2018-09-18T18:14:34.373Z,12.63
2018-09-18T18:17:01.783Z,24.05
2018-09-18T18:19:29.137Z,27.85
2018-09-18T18:21:56.494Z,27.13
2018-09-18T18:24:23.847Z,18.05
2018-09-18T18:26:51.109Z,15.30
2018-09-18T18:29:18.376Z,12.13
2018-09-18T18:31:45.601Z,13.45
2018-09-18T18:34:12.948Z,8.68
2018-09-18T18:36:40.194Z,13.25
2018-09-18T18:39:08.095Z,9.68
2018-09-18T18:41:35.949Z,19.07
2018-09-18T18:44:03.516Z,10.98
2018-09-18T18:46:30.748Z,14.35
2018-09-18T18:48:58.027Z,9.75
2018-09-18T18:51:26.915Z,8.63
2018-09-18T18:53:54.343Z,10.58
2018-09-18T18:56:41.314Z,10.18
2018-09-18T18:59:10.216Z,14.80
2018-09-18T19:01:37.499Z,10.72
2018-09-18T19:04:04.947Z,10.32
2018-09-18T19:06:32.243Z,11.80
2018-09-18T19:09:12.099Z,12.55
2018-09-18T19:11:39.667Z,10.38
2018-09-18T19:14:07.019Z,9.00
2018-09-18T19:16:34.266Z,10.18
2018-09-18T19:19:01.499Z,12.30
2018-09-18T19:21:30.320Z,9.03
2018-09-18T19:23:57.576Z,10.03
2018-09-18T19:26:27.264Z,11.65
2018-09-18T19:28:56.237Z,11.03
2018-09-18T19:31:23.500Z,9.95
2018-09-18T19:33:50.716Z,8.83
2018-09-18T19:36:17.955Z,9.58
2018-09-18T19:38:45.227Z,12.07
2018-09-18T19:41:12.531Z,12.75
2018-09-18T19:43:39.766Z,12.65
2018-09-18T19:46:07.022Z,10.30
2018-09-18T19:48:34.289Z,9.08
2018-09-18T19:51:01.600Z,9.73
2018-09-18T19:53:28.869Z,10.03
2018-09-18T19:55:56.132Z,14.05
2018-09-18T19:58:24.030Z,8.33
2018-09-18T20:00:51.335Z,9.90
2018-09-18T20:03:18.642Z,9.43
2018-09-18T20:05:45.884Z,11.35
2018-09-18T20:08:13.172Z,10.88
2018-09-18T20:10:40.437Z,10.65
2018-09-18T20:13:08.543Z,13.60
2018-09-18T20:15:35.800Z,12.60
2018-09-18T20:18:03.045Z,13.03
2018-09-18T20:20:30.351Z,12.90
2018-09-18T20:22:57.695Z,11.43
2018-09-18T20:25:24.927Z,11.28
2018-09-18T20:27:52.385Z,13.38
2018-09-18T20:30:19.667Z,14.35
2018-09-18T20:32:46.916Z,16.93
2018-09-18T20:35:14.115Z,12.68
2018-09-18T20:37:41.360Z,13.60
2018-09-18T20:40:08.567Z,11.12
2018-09-18T20:42:35.806Z,12.15
2018-09-18T20:45:03.055Z,13.22
2018-09-18T20:47:30.314Z,10.88
2018-09-18T20:49:57.590Z,13.30
2018-09-18T20:52:24.875Z,10.32
2018-09-18T20:54:52.082Z,10.80
2018-09-18T20:57:19.302Z,14.95
2018-09-18T20:59:46.578Z,11.22
2018-09-18T21:02:13.887Z,11.53
2018-09-18T21:04:41.060Z,12.68
2018-09-18T21:07:08.517Z,14.43
2018-09-18T21:09:35.771Z,10.43
2018-09-18T21:12:03.007Z,10.10
2018-09-18T21:14:30.241Z,10.68
2018-09-18T21:16:57.464Z,10.60
2018-09-18T21:19:24.741Z,10.10
2018-09-18T21:21:51.966Z,14.18
2018-09-18T21:24:19.271Z,10.08
2018-09-18T21:26:46.603Z,11.48
2018-09-18T21:29:13.871Z,11.03
2018-09-18T21:34:17.374Z,10.80
2018-09-18T21:36:44.599Z,12.07
2018-09-18T21:39:11.878Z,11.43
2018-09-18T21:41:39.276Z,11.65
2018-09-18T21:44:06.684Z,10.30
2018-09-18T21:46:33.907Z,9.83
2018-09-18T21:49:02.118Z,10.38
2018-09-18T21:51:29.472Z,13.53
2018-09-18T21:53:56.677Z,11.22
2018-09-18T21:56:23.925Z,10.63
2018-09-18T21:58:51.153Z,10.70
2018-09-18T22:01:18.466Z,12.40
2018-09-18T22:03:45.828Z,10.45
2018-09-18T22:06:13.053Z,11.90
2018-09-18T22:08:40.296Z,11.12
2018-09-18T22:11:07.541Z,9.70
2018-09-18T22:13:34.799Z,11.08
2018-09-18T22:16:02.043Z,9.75
2018-09-18T22:18:29.290Z,9.68
2018-09-18T22:20:56.532Z,10.18
2018-09-18T22:23:23.804Z,10.60
2018-09-18T22:25:51.067Z,11.48
2018-09-18T22:28:18.495Z,11.00
2018-09-18T22:30:45.979Z,10.98
2018-09-18T22:33:13.190Z,9.15
2018-09-18T22:35:40.444Z,10.08
2018-09-18T22:38:07.663Z,10.08
2018-09-18T22:40:34.896Z,13.10
2018-09-18T22:43:02.174Z,9.78
2018-09-18T22:45:29.370Z,10.03
2018-09-18T22:47:56.649Z,9.73
2018-09-18T22:50:23.874Z,9.60
2018-09-18T22:52:51.086Z,10.88
2018-09-18T22:55:18.375Z,10.40
2018-09-18T22:57:45.590Z,10.08
2018-09-18T23:00:12.807Z,11.38
2018-09-18T23:02:40.066Z,10.60
2018-09-18T23:05:07.525Z,11.85
2018-09-18T23:07:34.764Z,10.05
2018-09-18T23:10:02.238Z,12.40
2018-09-18T23:12:29.570Z,9.63
2018-09-18T23:14:56.808Z,10.10
2018-09-18T23:17:24.045Z,9.93
2018-09-18T23:19:51.293Z,10.60
2018-09-18T23:22:18.539Z,13.20
2018-09-18T23:24:45.834Z,13.78
2018-09-18T23:27:13.120Z,9.40
2018-09-18T23:29:40.335Z,10.20
2018-09-18T23:32:07.608Z,11.65
2018-09-18T23:34:34.903Z,11.00
2018-09-18T23:37:02.164Z,9.08
2018-09-18T23:39:29.397Z,10.20
2018-09-18T23:41:56.642Z,10.40
2018-09-18T23:44:23.800Z,11.50
2018-09-18T23:46:51.000Z,10.53
2018-09-18T23:49:18.246Z,10.38
2018-09-18T23:51:45.457Z,10.00
2018-09-18T23:54:12.671Z,10.55
2018-09-18T23:56:39.874Z,10.32
2018-09-18T23:59:07.127Z,12.43
